Terminal Aerodrome Forecast
Issued by NWS

Home | Current Version | Previous Version | Text Only | Print | Product List | Glossary On
Versions: 1 2 3 4 5 6 7 8 9 10 11 12 13 14 15
000
FTUS44 KLZK 261100
TAFLIT
TAF
KLIT 261126Z 2612/2712 20006KT P6SM SCT080 BKN150
     FM261500 24012G20KT P6SM BKN080 BKN150
     FM261900 30010G18KT P6SM SCT150
     FM270100 30006KT P6SM SCT035=

USA.gov is the U.S. government's official web portal to all federal, state and local government web resources and services.